Time;durP1;ratioP1;P1;durP2;ratioP2;P2;SDS_P1;SDS_P2;PMS_P1;PMS_P2;Temp;Humidity;BMP_temperature;BMP_pressure;BME280_temperature;BME280_humidity;BME280_pressure;Samples;Min_cycle;Max_cycle;Signal;HPM_P1;HPM_P2
2021/08/20 00:02:13;;;;;;;12.70;5.35;;;;;;;17.20;97.87;98763.72;5043670;28;20049;-69
2021/08/20 00:04:38;;;;;;;10.32;4.93;;;;;;;17.19;97.85;98743.34;5043908;28;20032;-69
2021/08/20 00:07:04;;;;;;;8.30;5.28;;;;;;;17.12;97.86;98731.25;5043841;28;20029;-69
2021/08/20 00:09:29;;;;;;;14.07;6.03;;;;;;;17.11;97.95;98745.50;5044882;28;20217;-69
2021/08/20 00:11:55;;;;;;;10.82;5.70;;;;;;;17.12;97.82;98747.22;5043857;28;20230;-69
2021/08/20 00:14:20;;;;;;;9.65;6.30;;;;;;;17.09;97.56;98784.59;5051600;28;20025;-69
2021/08/20 00:16:46;;;;;;;10.23;6.00;;;;;;;17.06;98.01;98875.16;5063054;28;20024;-69
2021/08/20 00:19:12;;;;;;;11.07;5.85;;;;;;;17.14;97.92;98798.56;5057469;28;20049;-69
2021/08/20 00:21:38;;;;;;;8.63;5.10;;;;;;;17.15;97.90;98779.00;5042594;28;20213;-69
2021/08/20 00:24:05;;;;;;;10.07;5.72;;;;;;;17.12;97.74;99220.69;5042599;28;20021;-69
2021/08/20 00:26:31;;;;;;;11.25;6.05;;;;;;;17.07;98.26;99063.06;5058664;28;20084;-69
2021/08/20 00:28:56;;;;;;;9.57;5.50;;;;;;;17.07;98.01;99068.41;5059482;28;20021;-69
2021/08/20 00:31:22;;;;;;;13.25;5.70;;;;;;;17.05;97.99;99099.50;5043674;28;20041;-69
2021/08/20 00:33:47;;;;;;;12.40;6.05;;;;;;;17.04;98.09;99116.38;5044629;28;20017;-69
2021/08/20 00:36:13;;;;;;;10.15;5.50;;;;;;;17.03;98.30;99129.75;5063031;28;20017;-69
2021/08/20 00:38:38;;;;;;;11.30;5.70;;;;;;;17.06;98.22;99040.03;5062066;28;20012;-69
2021/08/20 00:41:08;;;;;;;12.93;5.63;;;;;;;17.05;98.22;99027.69;5043807;28;20030;-69
2021/08/20 00:43:34;;;;;;;10.30;5.65;;;;;;;17.03;98.29;99167.81;5057747;28;20097;-69
2021/08/20 00:46:01;;;;;;;10.88;5.85;;;;;;;17.05;98.08;98700.56;5050759;28;20029;-69
2021/08/20 00:48:27;;;;;;;11.38;5.47;;;;;;;17.00;98.20;98768.19;5043474;28;20025;-69
2021/08/20 00:51:04;;;;;;;11.90;5.72;;;;;;;16.98;98.23;98409.28;5048156;28;20317;-69
2021/08/20 00:53:31;;;;;;;12.80;6.25;;;;;;;16.98;98.29;98906.53;5066721;28;20040;-69
2021/08/20 00:55:59;;;;;;;12.45;5.60;;;;;;;16.97;97.90;98803.75;5066417;28;20020;-69
2021/08/20 00:58:25;;;;;;;12.90;5.38;;;;;;;16.98;97.81;98770.91;5062437;28;20017;-69
2021/08/20 01:00:51;;;;;;;16.77;6.57;;;;;;;16.96;97.47;98787.88;5054241;28;20012;-69
2021/08/20 01:03:16;;;;;;;8.95;5.60;;;;;;;16.98;97.71;98797.50;5064825;28;20055;-69
2021/08/20 01:05:42;;;;;;;7.82;5.20;;;;;;;16.99;97.85;98799.22;5066472;28;20025;-69
2021/08/20 01:08:07;;;;;;;7.65;5.38;;;;;;;16.98;97.98;98793.97;5050596;28;20029;-69
2021/08/20 01:10:33;;;;;;;10.50;5.50;;;;;;;16.97;97.87;98801.09;5066157;28;20021;-69
2021/08/20 01:12:58;;;;;;;12.00;5.93;;;;;;;16.95;98.40;98791.44;5066324;28;20339;-69
2021/08/20 01:15:24;;;;;;;11.27;5.90;;;;;;;16.97;98.03;98798.44;5064852;28;20031;-69
2021/08/20 01:17:50;;;;;;;12.20;5.40;;;;;;;16.96;97.90;98820.63;5064836;28;20020;-69
2021/08/20 01:20:16;;;;;;;16.88;6.50;;;;;;;16.92;98.09;98787.13;5066197;28;20028;-69
2021/08/20 01:22:41;;;;;;;15.20;6.15;;;;;;;16.91;98.37;98801.34;5065864;28;20308;-69
2021/08/20 01:25:07;;;;;;;12.20;5.40;;;;;;;16.95;98.28;98802.94;5060529;28;20053;-69
2021/08/20 01:27:35;;;;;;;11.30;6.07;;;;;;;16.94;98.29;98801.22;5062833;28;20320;-69
2021/08/20 01:30:02;;;;;;;12.00;6.47;;;;;;;16.90;98.32;98788.97;5046576;28;20029;-69
2021/08/20 01:32:28;;;;;;;16.27;7.80;;;;;;;16.87;98.49;98794.41;5046531;28;20026;-69
2021/08/20 01:34:53;;;;;;;12.48;7.70;;;;;;;16.91;98.29;98849.22;5046538;28;20092;-69
2021/08/20 01:37:19;;;;;;;16.20;5.53;;;;;;;16.93;97.91;98847.34;5047601;28;20021;-69
2021/08/20 01:39:44;;;;;;;8.35;5.55;;;;;;;16.85;97.98;98854.78;5062331;28;20372;-69
2021/08/20 01:42:09;;;;;;;10.18;5.15;;;;;;;16.84;98.19;98831.75;5065495;28;20031;-69
2021/08/20 01:44:35;;;;;;;11.30;6.03;;;;;;;16.82;98.49;98838.94;5065759;28;20017;-69
2021/08/20 01:47:00;;;;;;;12.38;6.63;;;;;;;16.83;98.53;98856.63;5065302;28;20119;-69
2021/08/20 01:49:26;;;;;;;8.45;5.95;;;;;;;16.84;98.64;98837.06;5046204;28;20325;-69
2021/08/20 01:51:51;;;;;;;11.65;6.85;;;;;;;16.90;98.72;98847.47;5045053;28;20017;-69
2021/08/20 01:54:17;;;;;;;14.05;7.03;;;;;;;16.90;98.66;98847.47;5046215;28;20049;-69
2021/08/20 01:56:42;;;;;;;11.85;6.25;;;;;;;16.93;98.46;98833.19;5047226;28;20018;-69
2021/08/20 01:59:08;;;;;;;13.23;5.90;;;;;;;16.89;98.48;98840.41;5047195;28;20371;-69
2021/08/20 02:01:34;;;;;;;13.35;5.78;;;;;;;16.81;98.29;98831.88;5045588;28;20022;-69
2021/08/20 02:04:00;;;;;;;18.70;7.10;;;;;;;16.78;98.44;98836.47;5046860;28;20092;-69
2021/08/20 02:06:26;;;;;;;15.90;5.70;;;;;;;16.76;98.63;98833.88;5046959;28;20220;-69
2021/08/20 02:08:51;;;;;;;20.42;7.35;;;;;;;16.76;98.68;98894.13;5045913;28;20021;-69
2021/08/20 02:11:17;;;;;;;12.57;6.07;;;;;;;16.72;98.96;98921.78;5045876;28;20029;-69
2021/08/20 02:13:43;;;;;;;20.10;7.00;;;;;;;16.69;98.93;98925.44;5045761;28;20378;-69
2021/08/20 02:16:09;;;;;;;13.45;6.40;;;;;;;16.69;98.95;98911.25;5045969;28;20029;-69
2021/08/20 02:18:34;;;;;;;16.30;9.60;;;;;;;16.68;98.58;98873.16;5053741;28;20013;-69
2021/08/20 02:21:00;;;;;;;21.77;9.02;;;;;;;16.66;98.50;98911.38;5044564;28;20220;-69
2021/08/20 02:23:26;;;;;;;17.98;9.00;;;;;;;16.68;98.33;98925.50;5045589;28;20032;-69
2021/08/20 02:25:51;;;;;;;16.38;10.45;;;;;;;16.68;98.15;98898.91;5046867;28;20017;-69
2021/08/20 02:28:17;;;;;;;20.45;11.27;;;;;;;16.68;98.29;98878.50;5045437;28;20025;-69
2021/08/20 02:30:42;;;;;;;19.77;10.13;;;;;;;16.70;98.45;98923.63;5053549;28;20021;-69
2021/08/20 02:33:08;;;;;;;16.35;9.85;;;;;;;16.67;98.39;98937.91;5044457;28;20140;-69
2021/08/20 02:35:33;;;;;;;21.60;10.35;;;;;;;16.75;98.36;98932.28;5045383;28;20063;-69
2021/08/20 02:37:59;;;;;;;18.25;10.57;;;;;;;16.74;97.79;98962.47;5045359;28;20209;-69
2021/08/20 02:40:24;;;;;;;16.92;10.00;;;;;;;16.77;97.90;98946.41;5045288;28;20029;-69
2021/08/20 02:42:50;;;;;;;16.60;9.55;;;;;;;16.74;97.69;98910.16;5055848;28;20021;-69
2021/08/20 02:45:16;;;;;;;17.00;8.93;;;;;;;16.70;97.68;98839.44;5064011;28;20055;-69
2021/08/20 02:47:42;;;;;;;18.35;9.82;;;;;;;16.69;98.02;98807.59;5063881;28;20032;-69
2021/08/20 02:50:08;;;;;;;21.58;9.40;;;;;;;16.65;97.65;98861.81;5063920;28;20021;-69
2021/08/20 02:52:33;;;;;;;14.98;9.35;;;;;;;16.63;97.29;98859.22;5064930;28;20124;-69
2021/08/20 02:54:59;;;;;;;18.15;10.38;;;;;;;16.64;96.76;98847.66;5063825;28;20021;-69
2021/08/20 02:57:28;;;;;;;15.75;9.90;;;;;;;16.58;96.24;98842.59;5064874;28;20308;-69
2021/08/20 02:59:57;;;;;;;20.00;11.00;;;;;;;16.54;96.26;98848.06;5064845;28;20220;-69
2021/08/20 03:02:23;;;;;;;21.05;10.55;;;;;;;16.48;95.71;98843.00;5062000;28;20336;-69
2021/08/20 03:04:49;;;;;;;21.63;10.77;;;;;;;16.43;95.82;98859.16;5060180;28;20031;-69
2021/08/20 03:07:14;;;;;;;21.35;11.10;;;;;;;16.44;95.28;98852.91;5044689;28;20296;-69
2021/08/20 03:09:40;;;;;;;18.05;10.95;;;;;;;16.44;94.39;98847.59;5044740;28;20063;-69
2021/08/20 03:12:06;;;;;;;19.30;9.73;;;;;;;16.41;94.27;98852.13;5058582;28;20062;-69
2021/08/20 03:14:32;;;;;;;18.95;9.73;;;;;;;16.40;94.28;98819.38;5062634;28;20020;-69
2021/08/20 03:16:57;;;;;;;18.70;9.98;;;;;;;16.36;94.37;98832.84;5063961;28;20308;-69
2021/08/20 03:19:23;;;;;;;22.00;9.63;;;;;;;16.36;94.82;98820.41;5063957;28;20084;-69
2021/08/20 03:21:48;;;;;;;20.17;9.55;;;;;;;16.34;94.59;98920.56;5051415;28;20025;-69
2021/08/20 03:24:14;;;;;;;14.18;8.85;;;;;;;16.31;95.16;98902.09;5044487;28;20025;-69
2021/08/20 03:26:40;;;;;;;16.15;8.55;;;;;;;16.25;95.69;98883.72;5062960;28;20036;-69
2021/08/20 03:29:05;;;;;;;16.38;9.02;;;;;;;16.24;95.89;98798.78;5064324;28;20024;-69
2021/08/20 03:31:30;;;;;;;15.98;8.70;;;;;;;16.26;96.14;98539.31;5064259;28;20079;-69
2021/08/20 03:33:56;;;;;;;18.48;9.15;;;;;;;16.23;95.92;98540.28;5063089;28;20020;-69
2021/08/20 03:36:23;;;;;;;14.30;9.65;;;;;;;16.21;96.23;98550.13;5063917;28;20087;-69
2021/08/20 03:38:50;;;;;;;18.38;10.30;;;;;;;16.18;96.05;98547.63;5063030;28;20043;-69
2021/08/20 03:41:17;;;;;;;13.93;8.02;;;;;;;16.21;95.83;98552.78;5064140;28;20320;-69
2021/08/20 03:43:42;;;;;;;16.13;8.55;;;;;;;16.15;95.88;98547.75;5064076;28;20066;-69
2021/08/20 03:46:09;;;;;;;18.75;9.68;;;;;;;16.08;96.38;98548.06;5061204;28;20048;-69
2021/08/20 03:48:35;;;;;;;22.48;10.75;;;;;;;16.05;96.51;98551.72;5054647;28;20312;-69
2021/08/20 03:51:01;;;;;;;18.23;9.38;;;;;;;16.10;96.69;98554.19;5062290;28;20366;-69
2021/08/20 03:53:26;;;;;;;17.98;9.30;;;;;;;16.08;96.97;98556.03;5063183;28;20020;-69
2021/08/20 03:55:51;;;;;;;18.90;9.55;;;;;;;16.09;96.82;98563.94;5063400;28;20021;-69
2021/08/20 03:58:17;;;;;;;19.25;9.00;;;;;;;16.14;96.85;98556.63;5046210;28;20025;-69
2021/08/20 04:00:45;;;;;;;16.80;9.93;;;;;;;16.16;96.52;98560.09;5055827;28;20025;-69
2021/08/20 04:03:10;;;;;;;14.20;8.05;;;;;;;16.20;96.29;98561.66;5061869;28;20053;-69
2021/08/20 04:05:36;;;;;;;13.95;8.93;;;;;;;16.20;96.33;98561.66;5061687;28;20052;-69
2021/08/20 04:08:01;;;;;;;22.10;10.63;;;;;;;16.18;96.26;98558.25;5063727;28;20063;-69
2021/08/20 04:10:27;;;;;;;13.88;7.82;;;;;;;16.18;96.44;98568.88;5062102;28;20213;-69
2021/08/20 04:12:52;;;;;;;13.40;7.82;;;;;;;16.21;96.34;98567.84;5063799;28;20096;-69
2021/08/20 04:15:18;;;;;;;15.20;8.48;;;;;;;16.15;96.25;98566.34;5063760;28;20036;-69
2021/08/20 04:17:43;;;;;;;18.08;8.90;;;;;;;16.13;96.87;98570.84;5063766;28;20070;-69
2021/08/20 04:20:09;;;;;;;14.90;8.73;;;;;;;16.11;97.03;98575.34;5049844;28;20036;-69
2021/08/20 04:22:35;;;;;;;15.25;8.88;;;;;;;16.13;97.12;98573.50;5043776;28;20085;-69
2021/08/20 04:25:01;;;;;;;14.10;8.23;;;;;;;16.12;96.97;98574.44;5047830;28;20063;-69
2021/08/20 04:27:26;;;;;;;19.17;8.68;;;;;;;16.13;96.92;98575.28;5047740;28;20033;-69
2021/08/20 04:29:51;;;;;;;16.70;9.13;;;;;;;16.12;96.84;98574.44;5047759;28;20025;-69
2021/08/20 04:32:17;;;;;;;13.82;8.10;;;;;;;16.14;96.44;98575.19;5052394;28;20316;-70
2021/08/20 04:34:42;;;;;;;23.95;9.23;;;;;;;16.11;96.35;98582.47;5067623;28;20216;-69
2021/08/20 04:37:08;;;;;;;13.15;7.95;;;;;;;16.11;96.74;98585.97;5066451;28;20044;-69
2021/08/20 04:39:33;;;;;;;12.60;8.88;;;;;;;16.10;97.00;98586.91;5066387;28;20029;-69
2021/08/20 04:41:58;;;;;;;13.52;8.45;;;;;;;16.11;97.35;98583.31;5066322;28;20032;-69
2021/08/20 04:44:24;;;;;;;15.82;8.45;;;;;;;16.15;97.04;98584.94;5065688;28;20076;-69
2021/08/20 04:46:49;;;;;;;10.98;7.95;;;;;;;16.13;97.42;98584.09;5058649;28;20074;-69
2021/08/20 04:49:14;;;;;;;13.60;7.63;;;;;;;16.16;97.17;98597.25;5066227;28;20024;-69
2021/08/20 04:51:40;;;;;;;13.43;8.80;;;;;;;16.17;96.93;98596.31;5067364;28;20021;-69
2021/08/20 04:54:05;;;;;;;16.52;8.82;;;;;;;16.13;96.91;98600.03;5067561;28;20020;-69
2021/08/20 04:56:31;;;;;;;17.67;8.25;;;;;;;16.16;97.15;98607.88;5067205;28;20021;-69
2021/08/20 04:58:56;;;;;;;14.32;7.82;;;;;;;16.22;96.95;98602.31;5067164;28;20031;-69
2021/08/20 05:01:22;;;;;;;15.00;8.02;;;;;;;16.26;96.77;98611.88;5067126;28;20021;-69
2021/08/20 05:03:48;;;;;;;13.13;7.30;;;;;;;16.28;96.65;98612.69;5066920;28;20114;-69
2021/08/20 05:06:14;;;;;;;12.52;7.85;;;;;;;16.32;96.37;98614.28;5067042;28;20251;-69
2021/08/20 05:08:39;;;;;;;15.73;8.55;;;;;;;16.30;96.30;98616.13;5065763;28;20021;-69
2021/08/20 05:11:05;;;;;;;15.30;8.57;;;;;;;16.33;96.39;98621.31;5066976;28;20032;-69
2021/08/20 05:13:31;;;;;;;14.80;8.07;;;;;;;16.29;96.26;98619.72;5065764;28;20197;-69
2021/08/20 05:15:56;;;;;;;18.08;9.20;;;;;;;16.31;96.37;98625.84;5066873;28;20067;-69
2021/08/20 05:18:22;;;;;;;19.13;9.20;;;;;;;16.35;96.53;98631.88;5065659;28;20024;-69
2021/08/20 05:20:47;;;;;;;16.75;8.57;;;;;;;16.37;96.05;98628.25;5066787;28;20025;-69
2021/08/20 05:23:13;;;;;;;13.57;7.28;;;;;;;16.44;96.09;98628.84;5065567;28;20052;-69
2021/08/20 05:25:39;;;;;;;15.55;8.40;;;;;;;16.41;95.55;98624.50;5066720;28;20071;-69
2021/08/20 05:28:05;;;;;;;17.08;8.98;;;;;;;16.47;95.81;98634.03;5066571;28;20032;-69
2021/08/20 05:30:31;;;;;;;14.68;8.40;;;;;;;16.47;95.78;98624.28;5066521;28;20025;-69
2021/08/20 05:32:57;;;;;;;18.15;9.25;;;;;;;16.46;96.10;98621.69;5065393;28;20031;-69
2021/08/20 05:35:22;;;;;;;13.45;8.98;;;;;;;16.54;96.08;98625.75;5065660;28;20048;-69
2021/08/20 05:37:49;;;;;;;15.90;8.95;;;;;;;16.58;95.92;98624.69;5065298;28;20351;-69
2021/08/20 05:40:15;;;;;;;16.63;9.50;;;;;;;16.64;95.98;98627.06;5066462;28;20025;-69
2021/08/20 05:42:41;;;;;;;18.55;9.27;;;;;;;16.77;95.88;98628.25;5065229;28;20108;-69
2021/08/20 05:45:08;;;;;;;18.33;9.50;;;;;;;16.84;95.13;98624.38;5066306;28;20020;-69
2021/08/20 05:47:33;;;;;;;17.58;9.80;;;;;;;16.98;94.48;98629.97;5065035;28;20033;-69
2021/08/20 05:49:59;;;;;;;16.42;9.38;;;;;;;17.10;94.37;98624.09;5066248;28;20028;-69
2021/08/20 05:52:24;;;;;;;16.52;8.90;;;;;;;17.22;93.50;98626.19;5066179;28;20036;-69
2021/08/20 05:54:50;;;;;;;20.23;9.90;;;;;;;17.28;92.42;98619.75;5066121;28;20070;-69
2021/08/20 05:57:15;;;;;;;15.75;8.95;;;;;;;17.58;91.78;98633.41;5066111;28;20028;-69
2021/08/20 05:59:41;;;;;;;20.00;9.18;;;;;;;17.82;90.23;98633.13;5066020;28;20025;-69
2021/08/20 06:02:06;;;;;;;18.17;8.35;;;;;;;18.56;87.68;98643.59;5064635;28;20036;-69
2021/08/20 06:04:32;;;;;;;14.05;8.40;;;;;;;18.83;85.79;98641.34;5066002;28;20075;-69
2021/08/20 06:06:57;;;;;;;12.82;7.53;;;;;;;19.13;84.53;98634.38;5065853;28;20055;-69
2021/08/20 06:09:22;;;;;;;11.63;7.38;;;;;;;19.41;82.48;98639.09;5065872;28;20020;-69
2021/08/20 06:11:48;;;;;;;12.90;8.70;;;;;;;19.19;82.46;98645.59;5065909;28;20032;-69
2021/08/20 06:14:13;;;;;;;13.85;9.07;;;;;;;20.17;78.94;98642.78;5065779;28;20083;-69
2021/08/20 06:16:39;;;;;;;11.40;6.97;;;;;;;20.70;76.26;98640.50;5065719;28;20025;-69
2021/08/20 06:19:04;;;;;;;15.40;8.23;;;;;;;21.18;75.44;98642.91;5065721;28;20028;-69
2021/08/20 06:21:29;;;;;;;15.10;8.45;;;;;;;21.61;73.14;98641.03;5065632;28;20051;-69
2021/08/20 06:23:55;;;;;;;14.07;7.22;;;;;;;22.27;69.59;98639.41;5065599;28;20344;-69
2021/08/20 06:26:20;;;;;;;14.70;7.90;;;;;;;22.79;67.98;98636.78;5065527;28;20052;-69
2021/08/20 06:28:46;;;;;;;11.93;8.23;;;;;;;22.96;66.49;98636.47;5065443;28;20020;-69
2021/08/20 06:31:11;;;;;;;14.18;7.68;;;;;;;23.40;65.08;98638.75;5065460;28;20088;-69
2021/08/20 06:33:37;;;;;;;15.60;8.00;;;;;;;23.49;64.96;98643.50;5064298;28;20098;-69
2021/08/20 06:36:03;;;;;;;20.15;9.02;;;;;;;23.53;63.88;98637.78;5065371;28;20186;-69
2021/08/20 06:38:28;;;;;;;15.25;9.18;;;;;;;23.35;64.70;98636.44;5065322;28;20028;-69
2021/08/20 06:40:54;;;;;;;17.67;8.65;;;;;;;23.77;63.01;98636.03;5065239;28;20025;-69
2021/08/20 06:43:19;;;;;;;17.05;8.93;;;;;;;24.25;63.26;98640.53;5065240;28;20032;-70
2021/08/20 06:45:45;;;;;;;19.67;9.20;;;;;;;24.63;59.97;98635.84;5065173;28;20028;-70
2021/08/20 06:48:11;;;;;;;17.50;9.00;;;;;;;24.49;59.59;98627.94;5065100;28;20025;-70
2021/08/20 06:50:36;;;;;;;13.43;7.97;;;;;;;24.95;58.72;98631.56;5063908;28;20074;-70
2021/08/20 06:53:02;;;;;;;15.15;8.55;;;;;;;24.75;58.47;98634.94;5065052;28;20025;-69
2021/08/20 06:55:31;;;;;;;12.52;7.85;;;;;;;25.15;58.22;98638.94;5064973;28;20046;-69
2021/08/20 06:57:57;;;;;;;14.13;7.25;;;;;;;25.12;58.09;98633.78;5063793;28;20021;-69
2021/08/20 07:00:22;;;;;;;13.02;7.40;;;;;;;24.50;59.67;98640.44;5064916;28;20032;-69
2021/08/20 07:02:48;;;;;;;16.48;8.32;;;;;;;24.86;59.54;98645.72;5064608;28;20043;-69
2021/08/20 07:05:15;;;;;;;11.05;7.05;;;;;;;25.52;57.36;98654.94;5064817;28;20063;-69
2021/08/20 07:07:41;;;;;;;12.30;7.53;;;;;;;25.78;56.23;98656.44;5064683;28;20029;-69
2021/08/20 07:10:17;;;;;;;12.70;6.57;;;;;;;25.66;56.90;98654.72;5064691;28;20028;-69
2021/08/20 07:12:43;;;;;;;19.38;7.15;;;;;;;26.46;54.21;98659.75;5064754;28;20025;-69
2021/08/20 07:15:11;;;;;;;13.63;7.25;;;;;;;26.46;53.26;98657.06;5064625;28;20024;-69
2021/08/20 07:17:37;;;;;;;10.32;6.55;;;;;;;26.33;53.10;98662.63;5064520;28;20106;-69
2021/08/20 07:20:04;;;;;;;11.35;6.30;;;;;;;26.38;53.86;98659.53;5063378;28;20032;-69
2021/08/20 07:22:30;;;;;;;15.40;6.85;;;;;;;26.21;53.25;98657.38;5064451;28;20028;-69
2021/08/20 07:24:55;;;;;;;10.23;5.68;;;;;;;26.75;54.30;98658.22;5064432;28;20275;-69
2021/08/20 07:27:21;;;;;;;11.63;5.97;;;;;;;26.96;52.44;98656.41;5064306;28;20017;-69
2021/08/20 07:29:47;;;;;;;11.88;5.65;;;;;;;26.47;52.80;98653.38;5064364;28;20020;-69
2021/08/20 07:32:13;;;;;;;8.45;5.65;;;;;;;26.62;52.30;98647.59;5064337;28;20044;-69
2021/08/20 07:34:38;;;;;;;10.02;5.72;;;;;;;27.17;52.79;98638.31;5064243;28;20025;-69
2021/08/20 07:37:05;;;;;;;14.35;6.80;;;;;;;27.15;51.32;98643.03;5064267;28;20017;-69
2021/08/20 07:39:31;;;;;;;7.85;5.00;;;;;;;26.79;52.41;98648.84;5063064;28;20025;-69
2021/08/20 07:41:57;;;;;;;11.45;5.93;;;;;;;27.57;49.50;98651.97;5064155;28;20051;-69
2021/08/20 07:44:23;;;;;;;13.18;5.85;;;;;;;27.85;49.02;98652.16;5064104;28;20021;-69
2021/08/20 07:46:49;;;;;;;9.55;4.93;;;;;;;27.83;49.51;98654.09;5064027;28;20100;-70
2021/08/20 07:49:14;;;;;;;10.70;5.63;;;;;;;27.54;50.76;98655.81;5064094;28;20069;-70
2021/08/20 07:51:40;;;;;;;8.15;4.38;;;;;;;27.63;50.33;98656.84;5064023;28;20062;-70
2021/08/20 07:54:06;;;;;;;10.13;4.40;;;;;;;27.84;48.08;98660.38;5064006;28;20080;-70
2021/08/20 07:56:31;;;;;;;8.07;4.30;;;;;;;27.79;48.19;98658.06;5063985;28;20017;-70
2021/08/20 07:58:57;;;;;;;7.82;4.03;;;;;;;28.25;45.03;98655.69;5063539;28;20048;-70
2021/08/20 08:01:22;;;;;;;6.90;3.92;;;;;;;28.09;47.86;98655.34;5063878;28;20028;-70
2021/08/20 08:03:48;;;;;;;7.97;4.45;;;;;;;27.72;48.84;98662.31;5062558;28;20178;-70
2021/08/20 08:06:14;;;;;;;7.40;3.63;;;;;;;27.53;48.63;98654.09;5063900;28;20025;-70
2021/08/20 08:08:40;;;;;;;6.45;4.45;;;;;;;27.46;47.18;98650.19;5063743;28;20212;-70
2021/08/20 08:11:06;;;;;;;8.32;3.92;;;;;;;27.92;47.34;98658.72;5063833;28;20067;-70
2021/08/20 08:13:31;;;;;;;5.68;3.40;;;;;;;27.13;48.61;98655.81;5063812;28;20028;-70
2021/08/20 08:15:57;;;;;;;6.63;3.65;;;;;;;28.35;47.39;98656.53;5063782;28;20374;-70
2021/08/20 08:18:22;;;;;;;8.15;3.67;;;;;;;28.45;46.44;98652.06;5063734;28;20028;-70
2021/08/20 08:20:48;;;;;;;7.32;4.22;;;;;;;28.47;44.84;98654.63;5063711;28;20021;-70
2021/08/20 08:23:14;;;;;;;6.38;3.67;;;;;;;28.80;45.79;98652.38;5063773;28;20024;-70
2021/08/20 08:25:39;;;;;;;8.90;3.97;;;;;;;28.68;45.24;98653.50;5063679;28;20048;-70
2021/08/20 08:28:05;;;;;;;5.75;3.60;;;;;;;29.57;44.35;98657.69;5063594;28;20043;-70
2021/08/20 08:30:36;;;;;;;6.82;3.90;;;;;;;28.84;46.88;98656.50;5063635;28;20028;-70
2021/08/20 08:33:02;;;;;;;7.70;3.95;;;;;;;29.03;45.54;98661.94;5063619;28;20051;-70
2021/08/20 08:35:28;;;;;;;10.35;4.28;;;;;;;29.58;42.89;98667.56;5063604;28;20016;-70
2021/08/20 08:38:02;;;;;;;7.35;4.00;;;;;;;28.66;45.47;98671.75;5063624;28;20127;-70
2021/08/20 08:40:28;;;;;;;7.53;4.00;;;;;;;29.18;46.09;98674.06;5063548;28;20024;-70
2021/08/20 08:42:53;;;;;;;8.15;3.85;;;;;;;29.68;42.79;98668.41;5063532;28;20035;-70
2021/08/20 08:45:20;;;;;;;6.65;3.55;;;;;;;29.86;42.49;98674.78;5063479;28;20029;-70
2021/08/20 08:47:47;;;;;;;6.95;4.03;;;;;;;27.79;46.98;98674.31;5063419;28;20025;-70
2021/08/20 08:50:12;;;;;;;6.38;3.88;;;;;;;28.73;45.75;98678.28;5063467;28;20045;-70
2021/08/20 08:52:38;;;;;;;8.20;4.38;;;;;;;28.82;45.91;98687.47;5063413;28;20040;-70
2021/08/20 08:55:05;;;;;;;6.82;3.63;;;;;;;29.47;43.85;98684.00;5062242;28;20048;-70
2021/08/20 08:57:31;;;;;;;6.50;4.28;;;;;;;29.90;43.58;98687.03;5063386;28;20032;-70
2021/08/20 08:59:57;;;;;;;7.63;3.80;;;;;;;29.64;42.19;98675.97;5063343;28;20024;-70
2021/08/20 09:02:25;;;;;;;8.05;4.20;;;;;;;29.83;42.41;98675.09;5061948;28;20056;-70
2021/08/20 09:05:05;;;;;;;8.40;3.83;;;;;;;30.00;41.34;98677.00;5062150;28;20021;-70
2021/08/20 09:07:35;;;;;;;7.07;3.63;;;;;;;29.75;43.87;98678.53;5062066;28;20052;-70
2021/08/20 09:10:25;;;;;;;8.10;4.00;;;;;;;29.92;41.36;98676.88;5062845;28;20021;-70
2021/08/20 09:12:57;;;;;;;7.28;4.32;;;;;;;29.73;44.53;98685.13;5065837;28;20017;-70
2021/08/20 09:15:29;;;;;;;5.65;3.70;;;;;;;29.64;43.55;98675.16;5066967;28;20028;-70
2021/08/20 09:18:00;;;;;;;9.57;3.90;;;;;;;30.34;42.50;98680.88;5066915;28;20127;-70
2021/08/20 09:20:39;;;;;;;8.48;3.55;;;;;;;30.10;43.56;98680.53;5066815;28;20025;-70
2021/08/20 09:23:19;;;;;;;7.63;3.80;;;;;;;29.87;43.87;98681.91;5065645;28;20067;-70
2021/08/20 09:25:46;;;;;;;9.35;3.80;;;;;;;29.57;43.75;98679.38;5066720;28;20256;-70
2021/08/20 09:28:26;;;;;;;7.30;4.00;;;;;;;29.55;43.98;98681.41;5066869;28;20312;-70
2021/08/20 09:30:55;;;;;;;7.05;3.67;;;;;;;27.88;48.03;98673.53;5066565;28;20045;-70
2021/08/20 09:33:24;;;;;;;6.45;3.70;;;;;;;29.47;46.40;98678.56;5066575;28;20031;-70
2021/08/20 09:35:57;;;;;;;7.78;3.42;;;;;;;29.45;44.37;98672.44;5066539;28;20048;-70
2021/08/20 09:38:23;;;;;;;7.50;3.40;;;;;;;29.76;45.47;98679.38;5066447;28;20032;-70
2021/08/20 09:40:51;;;;;;;5.95;3.58;;;;;;;30.56;43.39;98681.28;5066413;28;20078;-70
2021/08/20 09:43:23;;;;;;;7.43;3.63;;;;;;;30.81;43.10;98682.41;5065221;28;20027;-70
2021/08/20 09:45:56;;;;;;;6.72;3.33;;;;;;;30.72;43.58;98686.06;5066372;28;20047;-70
2021/08/20 09:48:53;;;;;;;5.47;3.50;;;;;;;30.64;40.64;98675.09;5066233;28;20027;-70
2021/08/20 09:51:30;;;;;;;8.55;3.80;;;;;;;31.12;41.84;98667.41;5066333;28;20092;-70
2021/08/20 09:54:12;;;;;;;7.03;3.92;;;;;;;30.52;42.08;98670.88;5066186;28;20193;-70
2021/08/20 09:56:38;;;;;;;4.88;3.65;;;;;;;29.65;44.85;98671.41;5066187;28;20071;-70
2021/08/20 09:59:10;;;;;;;5.43;3.40;;;;;;;29.56;43.68;98667.69;5066102;28;20021;-70
2021/08/20 10:01:38;;;;;;;6.40;3.50;;;;;;;30.15;44.54;98661.94;5066012;28;20031;-70
2021/08/20 10:04:09;;;;;;;6.50;3.40;;;;;;;29.68;45.17;98663.00;5065925;28;20090;-70
2021/08/20 10:06:37;;;;;;;5.68;2.83;;;;;;;30.40;43.46;98655.81;5065946;28;20031;-70
2021/08/20 10:09:15;;;;;;;6.28;2.83;;;;;;;30.25;43.66;98662.75;5065909;28;20067;-70
2021/08/20 10:11:46;;;;;;;6.45;3.60;;;;;;;30.53;42.52;98664.44;5064735;28;20071;-70
2021/08/20 10:14:12;;;;;;;7.20;3.95;;;;;;;30.21;40.69;98658.66;5065846;28;20020;-70
2021/08/20 10:16:40;;;;;;;7.95;2.85;;;;;;;29.26;42.62;98654.34;5065798;28;20021;-70
2021/08/20 10:19:07;;;;;;;11.20;3.47;;;;;;;29.27;42.95;98647.06;5065738;28;20017;-70
2021/08/20 10:21:35;;;;;;;6.85;3.10;;;;;;;29.08;46.45;98651.50;5063669;28;20017;-70
2021/08/20 10:24:01;;;;;;;7.78;2.90;;;;;;;30.00;42.86;98649.84;5055571;28;20021;-70
2021/08/20 10:26:29;;;;;;;7.13;3.03;;;;;;;29.71;44.08;98650.00;5048651;28;20260;-70
2021/08/20 10:28:56;;;;;;;6.40;2.97;;;;;;;29.15;45.98;98646.38;5057620;28;20021;-70
2021/08/20 10:31:23;;;;;;;6.03;3.28;;;;;;;28.97;46.51;98648.94;5050430;28;20028;-70
2021/08/20 10:33:49;;;;;;;6.07;3.17;;;;;;;29.29;46.84;98647.78;5046602;28;20025;-70
2021/08/20 10:36:15;;;;;;;5.88;3.58;;;;;;;29.80;42.86;98649.06;5044331;28;20022;-70
2021/08/20 10:38:48;;;;;;;5.13;2.88;;;;;;;30.23;41.43;98660.19;5045319;28;20356;-70
2021/08/20 10:41:19;;;;;;;4.75;2.75;;;;;;;29.94;43.41;98653.16;5046492;28;20025;-70
2021/08/20 10:43:52;;;;;;;5.18;2.92;;;;;;;27.49;45.85;98647.22;5061519;28;20029;-70
2021/08/20 10:49:10;;;;;;;6.95;3.08;;;;;;;26.59;50.59;98658.63;5045152;28;20048;-70
2021/08/20 10:51:48;;;;;;;4.75;2.80;;;;;;;25.82;52.51;98655.19;5049378;28;20059;-70
2021/08/20 10:54:14;;;;;;;4.68;2.42;;;;;;;26.76;49.81;98657.22;5064375;28;20024;-70
2021/08/20 10:56:39;;;;;;;6.32;3.08;;;;;;;27.61;48.39;98648.88;5045085;28;20212;-70
2021/08/20 10:59:05;;;;;;;6.10;2.63;;;;;;;28.13;45.37;98645.97;5044999;28;20028;-70
2021/08/20 11:01:30;;;;;;;5.30;2.70;;;;;;;28.38;46.55;98650.03;5045377;28;20021;-70
2021/08/20 11:03:55;;;;;;;5.53;2.63;;;;;;;28.34;47.87;98648.56;5046646;28;20041;-70
2021/08/20 11:06:46;;;;;;;6.63;2.65;;;;;;;27.14;48.13;98649.41;5064267;28;20324;-70
2021/08/20 11:09:30;;;;;;;8.00;2.80;;;;;;;26.34;49.78;98652.69;5062727;28;20335;-70
2021/08/20 11:11:55;;;;;;;5.80;2.95;;;;;;;26.02;51.43;98658.03;5056781;28;20216;-70
2021/08/20 11:14:25;;;;;;;5.93;2.72;;;;;;;25.44;54.14;98649.31;5046127;28;20020;-70
2021/08/20 11:16:50;;;;;;;7.25;3.40;;;;;;;25.51;51.47;98658.63;5053116;28;20301;-70
2021/08/20 11:19:48;;;;;;;3.80;2.50;;;;;;;25.12;53.29;98654.50;5060606;28;20066;-70
2021/08/20 11:22:19;;;;;;;6.97;3.00;;;;;;;24.80;56.49;98662.34;5060868;28;20050;-70
2021/08/20 11:25:20;;;;;;;5.50;2.88;;;;;;;25.18;53.82;98660.25;5044752;28;20013;-70
2021/08/20 11:27:56;;;;;;;5.38;2.80;;;;;;;25.28;53.96;98655.03;5054645;28;20013;-70
2021/08/20 11:30:22;;;;;;;4.35;2.53;;;;;;;25.49;52.81;98660.56;5051007;28;20272;-70